Mount Pleasant, MS (38649)

10:20 PM CDT on March 27, 2017 (GMT -0500)
Frazier Road | | Change Station

Elev 364 ft 35.03 °N, 89.53 °W | Updated 32 seconds ago

Partly Cloudy
Partly Cloudy
63.8 °F
Feels Like 63.8 °F
N
1.0
Wind Variable Wind from NE
Gusts 3.0 mph

Today
High -- | Low -- °F
--% Chance of Precip.
Yesterday
High -- | Low -- °F
Precip. -- in
Pressure 29.87 in
Visibility 10.0 miles
Clouds Scattered Clouds 4500 ft
Dew Point 60 °F
Humidity 86%
Rainfall 0.11 in
Snow Depth Not available.
6:51 AM 7:15 PM
New Moon, 0% visible
METAR KMEM 280254Z 03007KT 10SM SCT045 19/16 A2988 RMK AO2 SLP115 T01890156 53029
Pressure 29.87 in
Visibility 10.0 miles
Clouds Scattered Clouds 4500 ft
Dew Point 60 °F
Humidity 86%
Rainfall 0.11 in
Snow Depth Not available.
6:51 AM 7:15 PM
New Moon, 0% visible
METAR KMEM 280254Z 03007KT 10SM SCT045 19/16 A2988 RMK AO2 SLP115 T01890156 53029

Get Severe Weather Alerts

Thanks for signing up!

Be on the lookout for a verification email in your inbox.

You'll start receiving the daily forecast at 8 AM.

×

10-Day Weather Forecast

Almanac

Astronomy

Mar. 27, 2017 Rise Set
Actual Time
Civil Twilight
Nautical Twilight
Astronomical Twilight
Moon
Length of Visible Light
Length of Day
Tomorrow will be .
, % of the Moon is Illuminated

Today's Extremes

State Highs State Lows

Community

WunderPhotos

Upload Photos

1,962,540 photos uploaded!

WunderBlog® & News

Nearby

Air Quality

  Air Quality AQ Index Pollutant
Not available.

Snow Depth

Station Depth Elevation

Earthquake Activity

City Distance Mag. Time & Date
Minimum magnitude displayed is 2.5.

Earthquake Activity

City Distance Mag. Time & Date
Minimum magnitude displayed is 2.5.

Coastal Water Temperatures

Place Temperature

Stations

Nearby Weather Stations

Station Location Temp. Windchill Dew Point Humidity Wind Precip. Elev Updated Type
                   

Watches & Warnings

There are currently no watches in effect.